Terminal Aerodrome Forecast
Issued by NWS

Home | Current Version | Previous Version | Text Only | Print | Product List | Glossary On
Versions: 1 2 3 4 5 6 7 8 9 10 11 12 13 14 15 16 17 18
000
FTUS44 KBMX 101700
TAFANB
TAF
KANB 101729Z 1018/1118 29006KT P6SM VCSH SCT040 BKN080
     FM110300 VRB03KT P6SM FEW050
     FM110800 00000KT 4SM BR SKC
     FM111400 VRB04KT P6SM SCT035=

USA.gov is the U.S. government's official web portal to all federal, state and local government web resources and services.